Flight Track Log - Related Links

Times and Time Zones

All times are in EDT time to prevent confusion due to time zone crossing. See the LIA553 flight status page for this flight to view local times or setup timezone preferences in your user account.

Time Position Orientation Groundspeed Altitude Reporting Facility
EDT Latitude Longitude Course Direction KTS MPH feet Rate Location/Type
Sun 02:53:00 PM 17.5768 -62.4428 126° Southeast  Level FlightAware Approximate
Sun 02:54:00 PM 17.5436 -62.3944 126° Southeast  Level FlightAware Approximate
Sun 02:55:00 PM 17.5105 -62.3459 126° Southeast  Level FlightAware Approximate
Sun 02:56:00 PM 17.4773 -62.2975 126° Southeast  Level FlightAware Approximate
Sun 02:57:00 PM 17.4441 -62.2491 126° Southeast  Level FlightAware Approximate
Sun 02:58:00 PM 17.4081 -62.2030 131° Southeast  Level FlightAware Approximate
Sun 02:59:00 PM 17.3707 -62.1582 131° Southeast  Level FlightAware Approximate
Sun 03:00:00 PM 17.3355 -62.1115 125° Southeast  Level FlightAware Approximate
Sun 03:01:00 PM 17.3029 -62.0627 125° Southeast  Level FlightAware Approximate
Sun 03:02:00 PM 17.2704 -62.0138 125° Southeast  Level FlightAware Approximate
Sun 03:03:00 PM 17.2368 -61.9658 128° Southeast  Level FlightAware Approximate
Sun 03:04:00 PM 17.2017 -61.9189 128° Southeast  Level FlightAware Approximate
Sun 03:05:00 PM 17.1666 -61.8721 128° Southeast  Level FlightAware Approximate
Sun 03:06:00 PM 17.1328 -61.8243 125° Southeast  Level FlightAware Approximate
Sun 03:07:00 PM 17.1367 -61.7927 90° East  Level Estimated
Sun 03:08:00 PM 17.1367 -61.7927 90° East  Level Estimated
Sun 03:09:00 PM 17.1367 -61.7927 90° East  Level Estimated
Sun 03:10:00 PM 17.1367 -61.7927 90° East  Level Estimated
Sun 03:11:00 PM 17.1367 -61.7927 90° East  Level Estimated
Sun 03:12:00 PM 17.1367 -61.7927 90° East  Level Estimated
Sun 03:13:00 PM 17.1367 -61.7927 90° East  Level Estimated
Sun 03:14:00 PM 17.1367 -61.7927 90° East  Level Estimated
Sun 03:15:00 PM 17.1367 -61.7927 90° East  Level Estimated
Sun 03:16:00 PM 17.1367 -61.7927 90° East  Level Estimated
Sun 03:17:00 PM 17.1367 -61.7927 90° East  Level Estimated
Sun 03:18:00 PM 17.1367 -61.7927 90° East  Level Estimated
Sun 03:19:00 PM 17.1367 -61.7927 90° East  Level Estimated
Sun 03:20:00 PM 17.1367 -61.7927 90° East  Level Estimated
Sun 03:21:00 PM 17.1367 -61.7927 90° East  Level Estimated

Login

Don't have an account? Register now (free) for customized features, flight alerts, and more!